Time;durP1;ratioP1;P1;durP2;ratioP2;P2;SDS_P1;SDS_P2;PMS_P1;PMS_P2;Temp;Humidity;BMP_temperature;BMP_pressure;BME280_temperature;BME280_humidity;BME280_pressure;Samples;Min_cycle;Max_cycle;Signal;HPM_P1;HPM_P2
2021/07/20 00:00:54;;;;;;;17.85;13.15;;;;;;;20.34;85.58;94230.34;1636336;87;21126;-54
2021/07/20 00:03:21;;;;;;;18.85;12.53;;;;;;;20.33;85.46;94235.78;1626993;87;21073;-53
2021/07/20 00:05:50;;;;;;;19.92;13.55;;;;;;;20.34;85.37;94235.92;1638741;87;21591;-52
2021/07/20 00:08:17;;;;;;;17.23;12.98;;;;;;;20.33;85.38;94244.16;1636103;87;20993;-53
2021/07/20 00:10:50;;;;;;;17.48;14.03;;;;;;;20.33;85.31;94239.97;1629179;87;21074;-53
2021/07/20 00:13:19;;;;;;;19.00;14.55;;;;;;;20.28;85.31;94239.39;1628615;87;21002;-53
2021/07/20 00:15:46;;;;;;;20.37;14.33;;;;;;;20.24;85.48;94231.94;1627672;87;21093;-53
2021/07/20 00:18:15;;;;;;;20.70;14.45;;;;;;;20.23;85.70;94227.63;1628588;87;21158;-53
2021/07/20 00:20:43;;;;;;;18.45;13.45;;;;;;;20.24;85.77;94224.95;1631361;86;21046;-54
2021/07/20 00:23:11;;;;;;;21.57;14.25;;;;;;;20.25;85.84;94224.45;1636440;86;21010;-53
2021/07/20 00:25:39;;;;;;;26.35;14.87;;;;;;;20.27;85.91;94222.52;1634365;86;21621;-54
2021/07/20 00:28:06;;;;;;;20.72;13.85;;;;;;;20.28;86.02;94214.25;1634311;87;21046;-54
2021/07/20 00:30:32;;;;;;;18.07;13.03;;;;;;;20.30;85.87;94210.28;1631757;87;21137;-54
2021/07/20 00:32:59;;;;;;;14.90;11.08;;;;;;;20.26;85.72;94208.42;1636113;87;21244;-52
2021/07/20 00:35:26;;;;;;;14.63;10.48;;;;;;;20.24;85.66;94206.80;1631885;87;20999;-55
2021/07/20 00:37:54;;;;;;;14.07;10.85;;;;;;;20.25;85.71;94204.12;1609415;87;21094;-52
2021/07/20 00:40:21;;;;;;;16.23;11.70;;;;;;;20.23;85.62;94203.23;1638771;86;21096;-53
2021/07/20 00:42:50;;;;;;;18.10;12.28;;;;;;;20.24;85.51;94199.81;1629474;86;21956;-54
2021/07/20 00:45:18;;;;;;;15.78;11.45;;;;;;;20.24;85.44;94180.26;1630490;86;21118;-53
2021/07/20 00:47:46;;;;;;;15.80;11.48;;;;;;;20.23;85.42;94182.28;1629300;87;21082;-54
2021/07/20 00:50:18;;;;;;;17.37;11.65;;;;;;;20.20;85.47;94182.59;1604609;88;21054;-53
2021/07/20 00:52:46;;;;;;;19.45;12.40;;;;;;;20.11;85.62;94173.14;1630542;87;22308;-53
2021/07/20 00:55:15;;;;;;;15.65;12.63;;;;;;;20.02;86.00;94169.30;1636049;86;21168;-55
2021/07/20 00:57:42;;;;;;;18.98;12.40;;;;;;;19.96;86.16;94174.13;1629480;87;21142;-53
2021/07/20 01:00:18;;;;;;;19.00;13.05;;;;;;;19.87;86.45;94182.86;1635178;87;21431;-54
2021/07/20 01:02:46;;;;;;;15.32;11.30;;;;;;;19.84;86.81;94178.32;1636264;87;21621;-53
2021/07/20 01:05:19;;;;;;;15.95;11.55;;;;;;;19.83;86.69;94182.39;1610151;88;21561;-53
2021/07/20 01:07:47;;;;;;;17.73;13.03;;;;;;;19.82;86.87;94189.25;1632757;87;21160;-54
2021/07/20 01:10:15;;;;;;;19.17;13.13;;;;;;;19.84;87.08;94181.11;1634814;87;21074;-52
2021/07/20 01:12:44;;;;;;;15.23;12.45;;;;;;;19.90;87.08;94179.02;1631738;87;21542;-52
2021/07/20 01:15:13;;;;;;;18.20;11.57;;;;;;;19.93;86.94;94170.99;1607489;87;21622;-52
2021/07/20 01:17:42;;;;;;;13.90;10.90;;;;;;;19.95;86.83;94167.04;1604097;87;21042;-53
2021/07/20 01:20:16;;;;;;;16.87;14.00;;;;;;;19.97;86.62;94164.51;1633538;86;21264;-52
2021/07/20 01:23:01;;;;;;;16.90;12.58;;;;;;;19.96;86.62;94161.56;1635494;87;21139;-53
2021/07/20 01:25:28;;;;;;;20.95;12.00;;;;;;;19.95;86.68;94158.66;1633854;86;21117;-53
2021/07/20 01:27:59;;;;;;;16.73;11.93;;;;;;;19.94;86.66;94158.55;1636216;87;21026;-52
2021/07/20 01:30:27;;;;;;;17.87;11.45;;;;;;;19.94;86.83;94159.20;1632170;86;21007;-56
2021/07/20 01:32:54;;;;;;;13.98;11.80;;;;;;;19.99;86.78;94166.14;1632547;87;21150;-53
2021/07/20 01:35:21;;;;;;;18.90;12.90;;;;;;;19.99;86.66;94171.72;1629525;87;21200;-53
2021/07/20 01:37:49;;;;;;;15.65;12.53;;;;;;;19.96;86.74;94174.13;1634516;86;21038;-53
2021/07/20 01:40:17;;;;;;;17.98;12.60;;;;;;;19.91;86.97;94177.00;1631876;87;20991;-52
2021/07/20 01:42:45;;;;;;;20.50;12.85;;;;;;;19.87;87.14;94177.27;1635925;87;21026;-53
2021/07/20 01:45:14;;;;;;;18.60;10.28;;;;;;;19.89;87.24;94179.56;1626955;88;21136;-53
2021/07/20 01:47:44;;;;;;;16.15;11.28;;;;;;;19.91;87.27;94175.60;1629865;87;21073;-52
2021/07/20 01:50:16;;;;;;;14.23;11.03;;;;;;;19.88;87.22;94174.59;1605345;87;21042;-53
2021/07/20 01:52:44;;;;;;;13.95;11.40;;;;;;;19.84;87.34;94176.92;1634375;87;21098;-53
2021/07/20 01:55:13;;;;;;;18.48;11.25;;;;;;;19.82;87.45;94168.94;1609371;87;20998;-52
2021/07/20 01:57:40;;;;;;;15.63;10.50;;;;;;;19.78;87.45;94169.22;1630409;87;21147;-55
2021/07/20 02:00:17;;;;;;;17.82;10.72;;;;;;;19.78;87.55;94169.22;1632677;86;21112;-53
2021/07/20 02:08:26;;;;;;;16.35;11.48;;;;;;;19.86;87.49;94159.64;1632599;86;21109;-52
2021/07/20 02:11:05;;;;;;;14.53;10.72;;;;;;;19.89;87.43;94160.75;1636172;87;21160;-52
2021/07/20 02:13:56;;;;;;;17.80;11.43;;;;;;;19.90;87.51;94161.53;1630158;87;21039;-52
2021/07/20 02:16:47;;;;;;;19.48;12.43;;;;;;;19.94;87.57;94164.78;1610778;87;21542;-52
2021/07/20 02:19:22;;;;;;;16.30;11.50;;;;;;;19.94;87.40;94150.83;1636292;87;21038;-52
2021/07/20 02:22:09;;;;;;;14.03;10.70;;;;;;;19.95;87.19;94154.47;1627602;87;21078;-53
2021/07/20 02:24:37;;;;;;;11.93;10.05;;;;;;;19.95;86.94;94151.67;1637001;87;21166;-53
2021/07/20 02:27:07;;;;;;;16.15;10.70;;;;;;;19.94;86.99;94151.56;1636054;87;21526;-53
2021/07/20 02:29:37;;;;;;;17.48;11.90;;;;;;;19.96;86.97;94151.80;1629887;87;21142;-53
2021/07/20 02:32:08;;;;;;;19.25;12.35;;;;;;;19.97;86.79;94153.96;1635528;87;21522;-52
2021/07/20 02:34:36;;;;;;;14.73;11.22;;;;;;;19.92;86.88;94149.20;1606775;87;21034;-53
2021/07/20 02:37:04;;;;;;;12.85;10.50;;;;;;;19.91;86.91;94153.27;1608435;87;21156;-53
2021/07/20 02:39:33;;;;;;;13.53;10.13;;;;;;;19.88;86.77;94160.64;1636004;87;21133;-52
2021/07/20 02:42:00;;;;;;;14.95;11.50;;;;;;;19.82;86.95;94159.17;1638055;87;20998;-52
2021/07/20 02:44:27;;;;;;;17.12;11.25;;;;;;;19.80;87.25;94159.70;1630627;86;21061;-57
2021/07/20 02:46:54;;;;;;;14.47;10.82;;;;;;;19.79;87.35;94165.17;1633270;87;21095;-53
2021/07/20 02:49:21;;;;;;;14.78;11.12;;;;;;;19.78;87.52;94165.68;1637692;87;21574;-53
2021/07/20 02:51:50;;;;;;;13.83;9.95;;;;;;;19.79;87.53;94163.01;1631959;87;21090;-53
2021/07/20 02:54:19;;;;;;;14.38;9.40;;;;;;;19.77;87.37;94155.14;1636623;85;21070;-55
2021/07/20 02:56:48;;;;;;;16.52;11.43;;;;;;;19.74;87.38;94154.79;1636351;87;21112;-53
2021/07/20 02:59:18;;;;;;;29.65;13.25;;;;;;;19.71;87.38;94147.46;1609873;87;21101;-53
2021/07/20 03:01:59;;;;;;;20.55;12.33;;;;;;;19.70;87.66;94145.95;1603956;87;21349;-54
2021/07/20 03:04:26;;;;;;;18.15;12.63;;;;;;;19.67;87.78;94143.44;1629815;87;21035;-55
2021/07/20 03:06:59;;;;;;;18.37;11.10;;;;;;;19.66;87.97;94155.25;1630510;86;21073;-52
2021/07/20 03:09:26;;;;;;;14.20;11.28;;;;;;;19.64;88.01;94148.66;1634072;87;27289;-54
2021/07/20 03:12:03;;;;;;;12.80;11.00;;;;;;;19.58;88.30;94148.70;1628315;87;21070;-53
2021/07/20 03:14:31;;;;;;;20.25;12.90;;;;;;;19.56;88.40;94154.05;1631560;87;21799;-53
2021/07/20 03:17:01;;;;;;;25.77;13.62;;;;;;;19.47;88.69;94148.80;1634463;86;21025;-54
2021/07/20 03:19:31;;;;;;;16.97;11.97;;;;;;;19.45;89.18;94151.36;1607863;87;21007;-53
2021/07/20 03:22:06;;;;;;;16.97;11.70;;;;;;;19.47;89.55;94150.20;1627748;88;21027;-53
2021/07/20 03:24:36;;;;;;;16.50;11.38;;;;;;;19.53;89.42;94146.72;1606604;86;21046;-53
2021/07/20 03:27:05;;;;;;;16.27;13.62;;;;;;;19.55;89.15;94149.00;1633698;86;21131;-54
2021/07/20 03:29:40;;;;;;;15.75;11.75;;;;;;;19.54;89.53;94159.39;1634172;86;21457;-52
2021/07/20 03:32:05;;;;;;;14.78;11.78;;;;;;;19.55;89.48;94149.00;1629540;87;21016;-52
2021/07/20 03:34:32;;;;;;;19.27;11.70;;;;;;;19.53;89.65;94152.30;1608992;87;21108;-53
2021/07/20 03:36:58;;;;;;;14.93;10.82;;;;;;;19.55;89.84;94151.14;1636304;86;21053;-53
2021/07/20 03:39:25;;;;;;;17.85;11.93;;;;;;;19.60;89.71;94144.75;1602392;87;21101;-54
2021/07/20 03:41:53;;;;;;;15.18;12.30;;;;;;;19.64;89.57;94150.83;1633839;86;21462;-57
2021/07/20 03:44:19;;;;;;;17.50;12.47;;;;;;;19.64;89.54;94142.45;1626450;87;21708;-53
2021/07/20 03:46:46;;;;;;;14.38;11.57;;;;;;;19.64;89.42;94141.06;1605779;87;21471;-54
2021/07/20 03:49:14;;;;;;;17.70;10.88;;;;;;;19.63;89.51;94145.13;1609029;87;21109;-57
2021/07/20 03:51:46;;;;;;;16.45;11.75;;;;;;;19.68;89.42;94147.11;1630443;87;21951;-56
2021/07/20 03:54:13;;;;;;;17.42;12.33;;;;;;;19.67;89.05;94155.37;1625219;86;21046;-55
2021/07/20 03:56:41;;;;;;;16.42;11.70;;;;;;;19.62;89.02;94149.20;1610326;86;21006;-55
2021/07/20 03:59:10;;;;;;;18.00;10.75;;;;;;;19.57;89.11;94150.63;1610052;87;21766;-54
2021/07/20 04:01:39;;;;;;;13.90;10.28;;;;;;;19.57;89.19;94147.19;1609925;87;21601;-53
2021/07/20 04:04:11;;;;;;;17.75;11.65;;;;;;;19.55;89.40;94152.53;1636283;87;21141;-53
2021/07/20 04:06:56;;;;;;;15.23;11.93;;;;;;;19.54;89.67;94156.61;1611430;88;21532;-54
2021/07/20 04:09:38;;;;;;;15.75;12.05;;;;;;;19.51;89.95;94163.23;1628364;87;21014;-55
2021/07/20 04:12:19;;;;;;;17.48;12.07;;;;;;;19.49;90.44;94156.02;1592902;87;21065;-53
2021/07/20 04:14:49;;;;;;;16.90;10.32;;;;;;;19.52;90.66;94161.95;1608003;87;21049;-53
2021/07/20 04:17:16;;;;;;;10.48;9.20;;;;;;;19.55;90.67;94156.72;1611677;87;21204;-55
2021/07/20 04:19:43;;;;;;;14.95;9.28;;;;;;;19.56;90.75;94148.47;1628690;86;21110;-52
2021/07/20 04:22:09;;;;;;;13.30;11.22;;;;;;;19.58;90.78;94156.33;1636654;86;21113;-54
2021/07/20 04:24:37;;;;;;;15.38;11.40;;;;;;;19.59;90.66;94152.27;1638728;87;21144;-54
2021/07/20 04:27:06;;;;;;;15.78;11.33;;;;;;;19.59;90.71;94151.61;1636570;86;21533;-54
2021/07/20 04:29:34;;;;;;;14.43;10.95;;;;;;;19.63;90.70;94153.50;1636060;87;21228;-54
2021/07/20 04:32:06;;;;;;;12.90;10.08;;;;;;;19.66;90.58;94154.48;1633781;87;21096;-55
2021/07/20 04:34:35;;;;;;;17.50;12.35;;;;;;;19.68;90.68;94151.30;1638849;87;21026;-55
2021/07/20 04:37:21;;;;;;;16.95;12.13;;;;;;;19.76;90.45;94152.23;1635564;86;21470;-53
2021/07/20 04:39:53;;;;;;;15.53;11.60;;;;;;;19.81;90.03;94150.05;1602891;88;21465;-54
2021/07/20 04:42:22;;;;;;;17.35;11.08;;;;;;;19.87;89.95;94154.94;1624965;86;21161;-54
2021/07/20 04:44:50;;;;;;;13.58;11.25;;;;;;;19.96;89.56;94149.00;1624849;86;21118;-53
2021/07/20 04:47:24;;;;;;;18.50;11.68;;;;;;;20.05;89.25;94145.91;1614963;88;21542;-54
2021/07/20 04:49:53;;;;;;;15.25;11.55;;;;;;;20.10;89.26;94146.49;1623852;86;21050;-54
2021/07/20 04:52:20;;;;;;;15.00;11.57;;;;;;;20.13;88.87;94146.84;1624688;88;21476;-54
2021/07/20 04:54:51;;;;;;;16.15;12.80;;;;;;;20.11;88.67;94143.81;1624411;86;40102;-54
2021/07/20 04:57:18;;;;;;;16.97;13.10;;;;;;;20.12;88.44;94145.33;1624533;88;21163;-55
2021/07/20 04:59:45;;;;;;;13.78;10.90;;;;;;;20.17;88.10;94148.72;1623873;88;22336;-54
2021/07/20 05:02:13;;;;;;;15.58;11.45;;;;;;;20.23;87.77;94150.16;1619195;88;21140;-54
2021/07/20 05:04:43;;;;;;;16.97;12.43;;;;;;;20.27;87.68;94151.27;1623212;88;21106;-54
2021/07/20 05:07:11;;;;;;;15.80;12.37;;;;;;;20.28;87.64;94147.97;1618448;86;21157;-54
2021/07/20 05:09:39;;;;;;;15.30;11.65;;;;;;;20.26;87.32;94154.72;1605052;88;21157;-55
2021/07/20 05:12:07;;;;;;;14.75;11.05;;;;;;;20.20;87.42;94150.47;1576698;88;21058;-54
2021/07/20 05:14:36;;;;;;;11.83;10.55;;;;;;;20.16;87.67;94152.80;1624495;87;21112;-55
2021/07/20 05:17:05;;;;;;;15.85;12.13;;;;;;;20.16;87.84;94158.39;1622452;88;21151;-54
2021/07/20 05:19:35;;;;;;;18.87;12.68;;;;;;;20.17;87.80;94155.05;1624784;88;21137;-55
2021/07/20 05:22:05;;;;;;;19.45;12.50;;;;;;;20.15;87.80;94158.24;1616488;88;21065;-54
2021/07/20 05:24:35;;;;;;;17.55;12.73;;;;;;;20.14;88.06;94159.52;1622068;88;21050;-55
2021/07/20 05:27:04;;;;;;;19.05;11.30;;;;;;;20.16;88.17;94166.11;1603242;88;21083;-55
2021/07/20 05:29:32;;;;;;;13.60;11.45;;;;;;;20.20;88.31;94164.44;1625537;87;21080;-55
2021/07/20 05:32:01;;;;;;;14.85;12.18;;;;;;;20.22;88.27;94164.01;1581203;89;21488;-55
2021/07/20 05:34:28;;;;;;;20.17;13.20;;;;;;;20.27;88.15;94162.45;1630730;87;20985;-56
2021/07/20 05:36:55;;;;;;;19.57;12.63;;;;;;;20.28;87.96;94165.35;1626778;87;21071;-56
2021/07/20 05:39:22;;;;;;;17.10;12.55;;;;;;;20.25;87.82;94163.61;1631818;86;21606;-56
2021/07/20 05:41:52;;;;;;;18.02;12.55;;;;;;;20.26;87.93;94160.94;1633207;85;21093;-58
2021/07/20 05:44:20;;;;;;;18.37;14.60;;;;;;;20.34;88.00;94168.86;1639606;86;21593;-56
2021/07/20 05:46:48;;;;;;;31.00;18.60;;;;;;;20.41;87.96;94168.27;1614104;85;20986;-58
2021/07/20 05:49:16;;;;;;;16.23;12.73;;;;;;;20.42;87.57;94165.59;1656943;85;21589;-56
2021/07/20 05:51:42;;;;;;;20.75;12.47;;;;;;;20.36;87.37;94174.03;1656347;85;20996;-61
2021/07/20 05:54:11;;;;;;;18.73;11.97;;;;;;;20.33;87.67;94170.12;1632810;86;21132;-53
2021/07/20 05:56:40;;;;;;;18.37;13.38;;;;;;;20.35;87.81;94167.58;1639950;85;21558;-60
2021/07/20 05:59:19;;;;;;;15.88;13.22;;;;;;;20.35;88.06;94162.00;1580965;86;21032;-58
2021/07/20 06:01:46;;;;;;;24.63;13.88;;;;;;;20.36;88.63;94167.05;1624931;85;21099;-57
2021/07/20 06:04:15;;;;;;;18.50;12.47;;;;;;;20.39;88.75;94161.05;1636329;85;21014;-58
2021/07/20 06:06:44;;;;;;;18.02;12.25;;;;;;;20.42;88.84;94164.20;1622494;85;21536;-56
2021/07/20 06:09:11;;;;;;;16.15;12.75;;;;;;;20.46;88.98;94161.86;1640527;85;21251;-56
2021/07/20 06:11:38;;;;;;;16.87;12.20;;;;;;;20.49;89.14;94169.19;1636705;86;21473;-55
2021/07/20 06:14:06;;;;;;;18.73;13.98;;;;;;;20.51;89.04;94161.03;1615339;86;21045;-57
2021/07/20 06:16:33;;;;;;;17.92;14.07;;;;;;;20.52;89.01;94165.37;1647757;84;21501;-56
2021/07/20 06:19:00;;;;;;;15.68;13.32;;;;;;;20.49;89.12;94163.59;1627014;85;22221;-60
2021/07/20 06:21:26;;;;;;;16.45;12.73;;;;;;;20.46;88.90;94159.06;1629563;86;21167;-55
2021/07/20 06:23:53;;;;;;;15.93;12.20;;;;;;;20.42;88.86;94164.97;1639462;85;21679;-61
2021/07/20 06:26:22;;;;;;;17.10;12.43;;;;;;;20.36;89.07;94170.49;1590555;87;21059;-58
2021/07/20 06:28:51;;;;;;;19.17;12.88;;;;;;;20.31;89.33;94167.09;1633271;86;21584;-56
2021/07/20 06:31:19;;;;;;;18.67;13.78;;;;;;;20.28;89.69;94166.75;1612755;87;21478;-57
2021/07/20 06:33:46;;;;;;;15.90;13.32;;;;;;;20.25;89.91;94165.78;1577700;88;21793;-55
2021/07/20 06:36:17;;;;;;;17.07;13.10;;;;;;;20.24;90.33;94171.25;1590691;88;21046;-56
2021/07/20 06:38:45;;;;;;;18.48;12.60;;;;;;;20.22;90.32;94173.78;1579698;89;21073;-55
2021/07/20 06:41:12;;;;;;;16.12;12.68;;;;;;;20.20;90.53;94186.13;1578526;89;21102;-55
2021/07/20 06:43:39;;;;;;;14.98;11.05;;;;;;;20.16;90.54;94177.94;1578288;88;21144;-58
2021/07/20 06:46:06;;;;;;;16.57;12.73;;;;;;;20.13;90.81;94178.95;1555290;89;21195;-61
2021/07/20 06:48:38;;;;;;;17.05;14.35;;;;;;;20.10;90.83;94174.42;1631733;86;21018;-55
2021/07/20 06:51:05;;;;;;;16.23;13.72;;;;;;;20.08;90.78;94181.83;1628829;86;21125;-59
2021/07/20 06:53:34;;;;;;;19.02;12.43;;;;;;;20.08;91.06;94174.19;1609864;87;21075;-59
2021/07/20 06:56:04;;;;;;;18.82;12.35;;;;;;;20.10;91.37;94178.61;1630254;86;21155;-53
2021/07/20 06:58:31;;;;;;;19.62;15.32;;;;;;;20.16;91.88;94184.92;1580474;88;21632;-57
2021/07/20 07:01:00;;;;;;;13.78;12.15;;;;;;;20.22;91.93;94177.23;1642103;86;21143;-57
2021/07/20 07:03:41;;;;;;;20.27;14.45;;;;;;;20.27;91.88;94178.58;1632569;86;21104;-56
2021/07/20 07:06:09;;;;;;;16.85;12.95;;;;;;;20.27;91.74;94177.81;1634123;86;20997;-58
2021/07/20 07:08:37;;;;;;;14.70;11.70;;;;;;;20.29;91.86;94175.25;1611652;86;21503;-56
2021/07/20 07:11:04;;;;;;;18.42;13.85;;;;;;;20.28;91.93;94175.13;1625712;86;21633;-57
2021/07/20 07:13:31;;;;;;;16.45;12.90;;;;;;;20.26;91.96;94170.71;1632887;86;21602;-56
2021/07/20 07:15:59;;;;;;;14.43;11.90;;;;;;;20.27;92.22;94175.02;1601333;87;21228;-56
2021/07/20 07:18:26;;;;;;;18.00;11.55;;;;;;;20.31;92.28;94172.06;1630527;86;21017;-55
2021/07/20 07:20:56;;;;;;;18.60;13.25;;;;;;;20.35;92.02;94171.78;1637952;86;21156;-56
2021/07/20 07:23:23;;;;;;;16.32;13.20;;;;;;;20.33;91.87;94164.53;1629924;86;21094;-55
2021/07/20 07:25:54;;;;;;;16.75;12.85;;;;;;;20.32;91.85;94170.00;1641235;85;21085;-56
2021/07/20 07:28:21;;;;;;;17.23;13.68;;;;;;;20.31;91.98;94156.69;1605860;87;21245;-55
2021/07/20 07:30:50;;;;;;;16.60;14.38;;;;;;;20.34;92.04;94161.23;1592464;88;21973;-54
2021/07/20 07:33:18;;;;;;;13.58;11.55;;;;;;;20.37;92.28;94169.21;1558777;89;21058;-57
2021/07/20 07:35:46;;;;;;;18.95;15.63;;;;;;;20.42;92.65;94161.41;1591199;89;21146;-52
2021/07/20 07:38:16;;;;;;;16.75;14.10;;;;;;;20.46;91.79;94163.26;1610285;86;21228;-54
2021/07/20 07:40:49;;;;;;;17.70;13.20;;;;;;;20.44;91.69;94161.00;1626140;86;21119;-52
2021/07/20 07:43:17;;;;;;;10.65;9.53;;;;;;;20.48;91.62;94150.91;1630862;86;21238;-54
2021/07/20 07:45:48;;;;;;;13.53;10.03;;;;;;;20.49;91.46;94154.59;1626164;86;21117;-66
2021/07/20 07:48:16;;;;;;;12.20;10.13;;;;;;;20.51;91.08;94154.81;1632418;86;21160;-56
2021/07/20 07:50:43;;;;;;;11.53;9.00;;;;;;;20.51;91.08;94150.62;1631064;86;21494;-55
2021/07/20 07:53:10;;;;;;;10.03;8.98;;;;;;;20.48;90.64;94145.32;1618830;86;21094;-51
2021/07/20 07:55:37;;;;;;;13.13;11.12;;;;;;;20.43;90.66;94136.37;1626563;86;21441;-51
2021/07/20 07:58:05;;;;;;;12.50;10.70;;;;;;;20.39;90.78;94132.45;1626484;85;21087;-63
2021/07/20 08:00:33;;;;;;;13.88;10.00;;;;;;;20.42;91.09;94123.05;1629222;86;21624;-57
2021/07/20 08:03:01;;;;;;;29.20;22.22;;;;;;;20.50;91.21;94125.98;1642359;85;21069;-51
2021/07/20 08:05:28;;;;;;;16.67;10.95;;;;;;;20.59;90.92;94122.84;1611429;86;21195;-53
2021/07/20 08:07:55;;;;;;;14.83;10.88;;;;;;;20.63;90.66;94117.08;1633867;86;21184;-53
2021/07/20 08:10:24;;;;;;;16.45;12.37;;;;;;;20.64;90.52;94115.79;1633578;86;21600;-51
2021/07/20 08:12:51;;;;;;;11.85;8.68;;;;;;;20.65;90.36;94110.94;1634268;85;22231;-59
2021/07/20 08:15:18;;;;;;;9.65;8.30;;;;;;;20.65;89.67;94115.91;1637578;86;21653;-54
2021/07/20 08:17:45;;;;;;;8.98;7.65;;;;;;;20.63;88.90;94107.29;1621086;86;21045;-54
2021/07/20 08:20:13;;;;;;;9.93;8.75;;;;;;;20.64;88.48;94105.23;1629815;86;21100;-50
2021/07/20 08:22:41;;;;;;;9.75;8.25;;;;;;;20.67;88.04;94104.17;1623496;86;21188;-54
2021/07/20 08:25:29;;;;;;;12.07;7.08;;;;;;;20.69;88.05;94104.40;1630171;85;21251;-51
2021/07/20 08:28:08;;;;;;;16.62;7.55;;;;;;;20.74;88.24;94104.99;1633633;86;21068;-52
2021/07/20 08:30:41;;;;;;;11.63;7.15;;;;;;;20.73;88.15;94104.88;1625996;86;21082;-52
2021/07/20 08:33:16;;;;;;;9.50;7.47;;;;;;;20.73;88.58;94105.62;1607362;87;21476;-55
2021/07/20 08:35:44;;;;;;;8.45;6.92;;;;;;;20.75;88.93;94098.11;1576189;89;21470;-54
2021/07/20 08:38:13;;;;;;;13.03;7.58;;;;;;;20.75;89.02;94100.91;1650416;85;21135;-54
2021/07/20 08:40:57;;;;;;;9.43;6.05;;;;;;;20.78;88.66;94099.85;1636843;86;21042;-53
2021/07/20 08:43:51;;;;;;;8.78;7.42;;;;;;;20.84;88.29;94101.95;1644526;85;21184;-53
2021/07/20 08:46:42;;;;;;;9.08;7.22;;;;;;;20.84;87.50;94102.72;1628747;84;21104;-52
2021/07/20 08:49:52;;;;;;;9.45;8.20;;;;;;;20.80;87.68;94100.08;1640309;84;21082;-52
2021/07/20 08:52:39;;;;;;;14.87;10.50;;;;;;;20.83;87.50;94097.61;1640294;86;21162;-56
2021/07/20 08:55:20;;;;;;;13.93;9.00;;;;;;;20.81;87.49;94094.59;1641679;85;21053;-52
2021/07/20 08:58:13;;;;;;;15.08;11.93;;;;;;;20.82;87.95;94095.48;1635747;86;21095;-55
2021/07/20 09:00:42;;;;;;;11.63;9.45;;;;;;;20.82;88.06;94096.88;1640602;86;21615;-55
2021/07/20 09:03:32;;;;;;;10.05;8.28;;;;;;;20.84;88.23;94094.33;1644424;85;21088;-52
2021/07/20 09:06:14;;;;;;;9.25;8.13;;;;;;;20.91;88.77;94092.97;1641862;85;21146;-49
2021/07/20 09:09:04;;;;;;;10.88;7.80;;;;;;;21.01;88.57;94097.66;1626554;85;21116;-52
2021/07/20 09:11:45;;;;;;;9.75;6.65;;;;;;;21.11;88.09;94095.97;1647345;85;21579;-56
2021/07/20 09:14:32;;;;;;;8.38;6.55;;;;;;;21.26;87.66;94094.86;1645251;85;21049;-50
2021/07/20 09:17:23;;;;;;;8.13;6.53;;;;;;;21.41;86.88;94090.94;1642906;86;21084;-51
2021/07/20 09:20:01;;;;;;;8.68;6.60;;;;;;;21.54;86.49;94088.82;1589507;85;21085;-55
2021/07/20 09:22:50;;;;;;;7.12;6.12;;;;;;;21.59;86.35;94086.56;1644024;85;21062;-58
2021/07/20 09:25:25;;;;;;;6.90;6.20;;;;;;;21.68;85.52;94094.61;1641624;85;21096;-59
2021/07/20 09:28:03;;;;;;;7.12;6.22;;;;;;;21.74;84.76;94092.45;1633928;86;22271;-54
2021/07/20 09:30:36;;;;;;;10.25;8.43;;;;;;;21.80;84.00;94084.73;1644331;86;21524;-53
2021/07/20 09:33:18;;;;;;;8.85;6.80;;;;;;;21.82;83.81;94088.48;1638225;85;21815;-59
2021/07/20 09:36:03;;;;;;;9.10;7.47;;;;;;;21.85;83.21;94085.28;1637530;86;21025;-54
2021/07/20 09:38:47;;;;;;;10.23;8.28;;;;;;;21.88;82.37;94082.80;1630836;86;21823;-57
2021/07/20 09:41:51;;;;;;;10.13;8.43;;;;;;;21.93;82.85;94083.34;1638973;85;20977;-57
2021/07/20 09:44:45;;;;;;;8.83;7.62;;;;;;;21.90;81.41;94075.38;1580822;88;21055;-56
2021/07/20 09:47:28;;;;;;;11.15;8.50;;;;;;;21.83;81.04;94079.45;1626249;86;21197;-58
2021/07/20 09:50:18;;;;;;;9.63;8.30;;;;;;;21.86;81.59;94074.18;1630631;86;21126;-58
2021/07/20 09:53:00;;;;;;;8.25;7.08;;;;;;;21.92;82.47;94069.22;1627946;85;21057;-58
2021/07/20 09:55:56;;;;;;;10.78;7.00;;;;;;;21.94;82.05;94068.03;1640873;86;21037;-58
2021/07/20 09:58:35;;;;;;;9.25;7.47;;;;;;;21.92;80.92;94068.59;1625217;85;21251;-60
2021/07/20 10:01:34;;;;;;;7.65;6.53;;;;;;;21.92;80.37;94066.42;1641315;85;21568;-59
2021/07/20 10:04:10;;;;;;;11.97;7.60;;;;;;;21.97;79.96;94065.56;1642520;84;21073;-59
2021/07/20 10:06:53;;;;;;;12.50;8.75;;;;;;;22.04;80.13;94067.84;1648165;85;20989;-58
2021/07/20 10:09:31;;;;;;;9.15;6.70;;;;;;;22.12;80.34;94066.56;1630179;86;21468;-60
2021/07/20 10:12:01;;;;;;;9.40;7.40;;;;;;;22.12;80.14;94070.10;1639657;85;21060;-55
2021/07/20 10:14:48;;;;;;;11.18;8.83;;;;;;;22.05;80.46;94064.38;1653530;86;22093;-55
2021/07/20 10:17:31;;;;;;;10.72;7.90;;;;;;;21.99;80.90;94068.61;1642133;86;21044;-52
2021/07/20 10:20:22;;;;;;;7.83;6.92;;;;;;;21.90;80.60;94066.98;1630782;86;21111;-55
2021/07/20 10:23:15;;;;;;;7.47;6.47;;;;;;;21.84;80.75;94071.16;1628653;86;21438;-58
2021/07/20 10:25:48;;;;;;;6.53;5.75;;;;;;;21.81;80.63;94069.44;1635999;85;21488;-58
2021/07/20 10:28:28;;;;;;;9.18;7.30;;;;;;;21.73;79.65;94062.95;1644224;85;21339;-58
2021/07/20 10:31:14;;;;;;;9.13;7.03;;;;;;;21.78;79.69;94064.88;1635812;86;21403;-66
2021/07/20 10:33:45;;;;;;;6.62;5.92;;;;;;;21.87;79.80;94059.62;1655581;85;21026;-58
2021/07/20 10:36:17;;;;;;;5.87;5.17;;;;;;;21.95;78.56;94061.91;1654489;85;21068;-57
2021/07/20 10:38:51;;;;;;;5.47;4.90;;;;;;;21.98;77.61;94055.89;1641147;85;21601;-54
2021/07/20 10:41:24;;;;;;;12.33;7.05;;;;;;;21.99;76.76;94051.80;1639315;86;21139;-58
2021/07/20 10:44:07;;;;;;;8.33;6.20;;;;;;;22.03;78.24;94048.02;1629919;86;21087;-58
2021/07/20 10:46:35;;;;;;;6.62;4.92;;;;;;;22.07;79.10;94041.55;1645271;85;21001;-55
2021/07/20 10:49:30;;;;;;;9.93;5.62;;;;;;;22.13;80.35;94042.19;1652231;85;21564;-59
2021/07/20 10:52:08;;;;;;;7.40;5.10;;;;;;;22.24;80.66;94044.78;1619854;86;21107;-57
2021/07/20 10:54:39;;;;;;;7.00;5.03;;;;;;;22.38;79.99;94044.16;1584563;86;21926;-59
2021/07/20 10:57:10;;;;;;;7.20;6.10;;;;;;;22.44;78.64;94046.95;1645144;86;21185;-57
2021/07/20 11:00:14;;;;;;;5.15;4.65;;;;;;;22.48;77.22;94040.36;1636443;85;21848;-57
2021/07/20 11:02:59;;;;;;;;;;;;;;;22.52;76.45;94039.41;1609181;87;21045;-61
2021/07/20 11:05:27;;;;;;;5.05;4.37;;;;;;;22.55;76.31;94042.53;1582674;88;20199;-58
2021/07/20 11:08:04;;;;;;;5.40;4.58;;;;;;;22.49;76.27;94036.27;1606374;87;21139;-58
2021/07/20 11:10:38;;;;;;;7.75;5.55;;;;;;;22.44;75.55;94042.01;1610614;86;21061;-58
2021/07/20 11:13:19;;;;;;;6.35;5.25;;;;;;;22.38;75.27;94037.91;1642887;86;21225;-57
2021/07/20 11:15:53;;;;;;;5.50;4.92;;;;;;;22.40;75.28;94035.32;1629616;85;21113;-57
2021/07/20 11:18:18;;;;;;;5.10;4.50;;;;;;;22.36;76.64;94040.48;1624763;85;21363;-56
2021/07/20 11:20:45;;;;;;;4.67;3.83;;;;;;;22.25;77.73;94032.28;1629263;86;21777;-59
2021/07/20 11:23:12;;;;;;;5.35;4.40;;;;;;;22.11;78.54;94031.43;1630607;86;21117;-58
2021/07/20 11:25:40;;;;;;;7.08;5.00;;;;;;;21.98;79.21;94029.28;1613066;86;20989;-56
2021/07/20 11:28:09;;;;;;;4.97;4.37;;;;;;;21.88;79.92;94030.98;1606167;85;21055;-59
2021/07/20 11:30:38;;;;;;;5.40;4.25;;;;;;;21.83;80.67;94029.05;1640427;86;21098;-58
2021/07/20 11:33:18;;;;;;;5.10;4.33;;;;;;;21.76;81.39;94031.06;1633421;86;21163;-58
2021/07/20 11:35:49;;;;;;;8.35;7.55;;;;;;;21.69;81.83;94027.52;1630774;85;20989;-60
2021/07/20 11:38:20;;;;;;;7.05;4.42;;;;;;;21.69;82.52;94034.52;1646756;86;21052;-61
2021/07/20 11:41:16;;;;;;;5.87;4.40;;;;;;;21.74;82.90;94028.05;1633355;85;21538;-63
2021/07/20 11:44:00;;;;;;;6.47;4.53;;;;;;;21.71;83.00;94029.12;1634023;86;21025;-57
2021/07/20 11:46:26;;;;;;;4.90;4.40;;;;;;;21.69;83.04;94023.31;1638984;85;21235;-58
2021/07/20 11:49:11;;;;;;;6.83;4.25;;;;;;;21.65;82.71;94029.88;1643308;86;21057;-57
2021/07/20 11:51:53;;;;;;;5.37;4.75;;;;;;;21.62;82.80;94019.73;1641128;85;21989;-59